createdAt,value
2017-05-29T04:46:18.252Z,20.84
2017-05-29T04:46:43.754Z,20.88
2017-05-29T04:47:09.200Z,20.93
2017-05-29T04:47:34.668Z,20.96
2017-05-29T04:48:00.180Z,20.97
2017-05-29T04:48:25.617Z,20.97
2017-05-29T04:48:51.083Z,21
2017-05-29T04:49:16.563Z,21.05
2017-05-29T04:49:42.032Z,21.03
2017-05-29T04:50:07.536Z,21.15
2017-05-29T04:50:32.995Z,21.06
2017-05-29T04:50:58.479Z,21.07
2017-05-29T04:51:23.949Z,21.17
2017-05-29T04:51:49.442Z,21.2
2017-05-29T04:52:14.911Z,21.21
2017-05-29T04:52:40.366Z,21.25
2017-05-29T04:53:05.849Z,21.24
2017-05-29T04:53:31.329Z,21.22
2017-05-29T04:53:56.814Z,21.25
2017-05-29T04:54:22.306Z,21.24
2017-05-29T04:54:47.810Z,21.21
2017-05-29T04:55:13.269Z,21.29
2017-05-29T04:55:38.745Z,21.3
2017-05-29T04:56:04.216Z,21.35
2017-05-29T04:56:29.713Z,21.33
2017-05-29T04:56:55.179Z,21.39
2017-05-29T04:57:20.654Z,21.4
2017-05-29T04:57:46.144Z,21.43
2017-05-29T04:58:11.643Z,21.35
2017-05-29T04:58:37.120Z,21.4
2017-05-29T04:59:02.608Z,21.43
2017-05-29T04:59:28.090Z,21.48
2017-05-29T04:59:53.573Z,21.43
2017-05-29T05:00:19.076Z,21.43
2017-05-29T05:00:44.549Z,21.4
2017-05-29T05:01:10.032Z,21.5
2017-05-29T05:01:35.520Z,21.46
2017-05-29T05:02:00.995Z,21.52
2017-05-29T05:02:26.476Z,21.51
2017-05-29T05:02:51.957Z,21.57
2017-05-29T05:03:17.456Z,21.62
2017-05-29T05:03:42.934Z,21.58
2017-05-29T05:04:08.432Z,21.7
2017-05-29T05:04:33.917Z,21.69
2017-05-29T05:04:59.433Z,21.62
2017-05-29T05:05:24.939Z,21.66
2017-05-29T05:05:50.420Z,21.75
2017-05-29T05:06:15.891Z,21.67
2017-05-29T05:06:41.387Z,21.76
2017-05-29T05:07:06.868Z,21.72
2017-05-29T05:07:32.367Z,21.73
2017-05-29T05:07:57.848Z,21.67
2017-05-29T05:08:23.327Z,21.64
2017-05-29T05:08:48.817Z,21.79
2017-05-29T05:09:14.292Z,21.75
2017-05-29T05:09:39.777Z,21.77
2017-05-29T05:10:05.279Z,21.67
2017-05-29T05:10:30.768Z,21.79
2017-05-29T05:10:56.260Z,21.67
2017-05-29T05:11:21.771Z,21.75
2017-05-29T05:11:47.251Z,21.73
2017-05-29T05:12:12.736Z,21.73
2017-05-29T05:12:38.229Z,21.75
2017-05-29T05:13:03.765Z,21.72
2017-05-29T05:13:29.211Z,21.72
2017-05-29T05:13:54.689Z,21.77
2017-05-29T05:14:20.207Z,21.72
2017-05-29T05:14:45.681Z,21.76
2017-05-29T05:15:11.168Z,21.76
2017-05-29T05:15:36.652Z,21.77
2017-05-29T05:16:02.127Z,21.77
2017-05-29T05:16:27.612Z,21.76
2017-05-29T05:16:53.103Z,21.77
2017-05-29T05:17:18.600Z,21.8
2017-05-29T05:17:44.091Z,21.67
2017-05-29T05:18:09.593Z,21.79
2017-05-29T05:18:35.109Z,21.73
2017-05-29T05:19:00.591Z,21.82
2017-05-29T05:19:26.083Z,21.85
2017-05-29T05:19:51.578Z,21.8
2017-05-29T05:20:17.053Z,21.88
2017-05-29T05:20:42.560Z,21.91
2017-05-29T05:21:08.030Z,21.92
2017-05-29T05:21:33.528Z,21.95
2017-05-29T05:21:59.028Z,22
2017-05-29T05:22:24.514Z,21.93
2017-05-29T05:22:50.007Z,21.93
2017-05-29T05:23:15.511Z,21.96
2017-05-29T05:23:41.005Z,21.99
2017-05-29T05:24:06.473Z,22.06
2017-05-29T05:24:31.951Z,22.1
2017-05-29T05:24:57.432Z,22
2017-05-29T05:25:22.914Z,22.02
2017-05-29T05:25:48.401Z,22.11
2017-05-29T05:26:13.904Z,22.18
2017-05-29T05:26:39.395Z,22.17
2017-05-29T05:27:04.857Z,22.14
2017-05-29T05:27:30.332Z,22.17
2017-05-29T05:27:55.801Z,22.29
2017-05-29T05:28:21.295Z,22.2
2017-05-29T05:28:46.762Z,22.22
2017-05-29T05:29:12.254Z,22.28
2017-05-29T05:29:37.749Z,22.33
2017-05-29T05:30:03.267Z,22.36
2017-05-29T05:30:28.736Z,22.38
2017-05-29T05:30:54.207Z,22.39
2017-05-29T05:31:19.750Z,22.48
2017-05-29T05:31:45.203Z,22.39
2017-05-29T05:32:10.687Z,22.48
2017-05-29T05:32:36.181Z,22.48
2017-05-29T05:33:01.666Z,22.6
2017-05-29T05:33:27.151Z,22.59
2017-05-29T05:33:52.646Z,22.63
2017-05-29T05:34:18.143Z,22.62
2017-05-29T05:34:43.655Z,22.57
2017-05-29T05:35:09.139Z,22.68
2017-05-29T05:35:34.621Z,22.76
2017-05-29T05:36:00.087Z,22.7
2017-05-29T05:36:25.591Z,22.78
2017-05-29T05:36:51.078Z,22.81
2017-05-29T05:37:16.581Z,22.84
2017-05-29T05:37:42.048Z,22.87
2017-05-29T05:38:07.532Z,22.88
2017-05-29T05:38:33.037Z,22.88
2017-05-29T05:38:58.542Z,22.91
2017-05-29T05:39:24.023Z,22.94
2017-05-29T05:39:49.484Z,22.99
2017-05-29T05:40:14.971Z,23.02
2017-05-29T05:40:40.468Z,23
2017-05-29T05:41:05.941Z,23.09
2017-05-29T05:41:31.411Z,23.06
2017-05-29T05:41:56.906Z,23.1
2017-05-29T05:42:22.417Z,23.2
2017-05-29T05:42:47.906Z,23.1
2017-05-29T05:43:13.393Z,23.15
2017-05-29T05:43:38.880Z,23.18
2017-05-29T05:44:04.376Z,23.21
2017-05-29T05:44:29.864Z,23.18
2017-05-29T05:44:55.336Z,23.31
2017-05-29T05:45:20.815Z,23.21
2017-05-29T05:45:46.318Z,23.32
2017-05-29T05:46:11.807Z,23.31
2017-05-29T05:46:37.280Z,23.37
2017-05-29T05:47:02.762Z,23.39
2017-05-29T05:47:28.229Z,23.37
2017-05-29T05:47:53.714Z,23.36
2017-05-29T05:48:19.222Z,23.28
2017-05-29T05:48:44.701Z,23.34
2017-05-29T05:49:10.210Z,23.34
2017-05-29T05:49:35.670Z,23.43
2017-05-29T05:50:01.162Z,23.47
2017-05-29T05:50:26.635Z,23.46
2017-05-29T05:50:52.133Z,23.4
2017-05-29T05:51:17.626Z,23.44
2017-05-29T05:51:43.123Z,23.47
2017-05-29T05:52:08.617Z,23.55
2017-05-29T05:52:34.065Z,23.54
2017-05-29T05:52:59.550Z,23.54
2017-05-29T05:53:25.015Z,23.61
2017-05-29T05:53:50.495Z,23.59
2017-05-29T05:54:15.993Z,23.61
2017-05-29T05:54:41.492Z,23.61
2017-05-29T05:55:06.983Z,23.65
2017-05-29T05:55:32.471Z,23.59
2017-05-29T05:55:57.977Z,23.62
2017-05-29T05:56:23.466Z,23.56
2017-05-29T05:56:48.937Z,23.62
2017-05-29T05:57:14.395Z,23.59
2017-05-29T05:57:39.890Z,23.63
2017-05-29T05:58:05.383Z,23.63
2017-05-29T05:58:30.879Z,23.65
2017-05-29T05:58:56.354Z,23.65
2017-05-29T05:59:21.841Z,23.65
2017-05-29T05:59:47.316Z,23.66
2017-05-29T06:00:12.797Z,23.69
2017-05-29T06:00:38.270Z,23.65
2017-05-29T06:01:03.765Z,23.65
2017-05-29T06:01:29.240Z,23.68
2017-05-29T06:01:54.727Z,23.63
2017-05-29T06:02:20.248Z,23.68
2017-05-29T06:02:45.732Z,23.68
2017-05-29T06:03:11.226Z,23.66
2017-05-29T06:03:36.713Z,23.68
2017-05-29T06:04:02.187Z,23.71
2017-05-29T06:04:27.678Z,23.71
2017-05-29T06:04:53.183Z,23.8
2017-05-29T06:05:18.673Z,23.8
2017-05-29T06:05:44.122Z,23.69
2017-05-29T06:06:09.633Z,23.81
2017-05-29T06:06:35.147Z,23.86
2017-05-29T06:07:00.615Z,23.84
2017-05-29T06:07:26.104Z,23.8
2017-05-29T06:07:51.574Z,23.86
2017-05-29T06:08:17.057Z,23.83
2017-05-29T06:08:42.522Z,23.86
2017-05-29T06:09:08.002Z,23.87
2017-05-29T06:09:33.491Z,23.83
2017-05-29T06:09:58.988Z,23.86
2017-05-29T06:10:24.476Z,23.87
2017-05-29T06:10:49.956Z,23.8
2017-05-29T06:11:15.441Z,23.88
2017-05-29T06:11:40.935Z,23.84
2017-05-29T06:12:06.424Z,23.88
2017-05-29T06:12:31.912Z,23.88
2017-05-29T06:12:57.405Z,23.88
2017-05-29T06:13:22.887Z,23.88
2017-05-29T06:13:48.382Z,23.93
2017-05-29T06:14:13.856Z,23.92
2017-05-29T06:14:39.342Z,23.92
2017-05-29T06:15:04.818Z,23.92
2017-05-29T06:15:30.323Z,24.01
2017-05-29T06:15:55.784Z,23.95
2017-05-29T06:16:21.268Z,23.99
2017-05-29T06:16:46.758Z,23.95
2017-05-29T06:17:12.249Z,24.01
2017-05-29T06:17:37.748Z,24.02
2017-05-29T06:18:03.237Z,23.95
2017-05-29T06:18:28.694Z,24.01
2017-05-29T06:18:54.185Z,24.02
2017-05-29T06:19:19.676Z,24.06
2017-05-29T06:19:45.137Z,24.05
2017-05-29T06:20:10.607Z,24.03
2017-05-29T06:20:36.087Z,24.06
2017-05-29T06:21:01.560Z,24.13
2017-05-29T06:21:27.058Z,24.1
2017-05-29T06:21:52.544Z,24.1
2017-05-29T06:22:18.046Z,24.11
2017-05-29T06:22:43.513Z,24.18
2017-05-29T06:23:08.993Z,24.16
2017-05-29T06:23:34.469Z,24.16
2017-05-29T06:23:59.973Z,24.1
2017-05-29T06:24:25.439Z,24.13
2017-05-29T06:24:50.937Z,24.14
2017-05-29T06:25:16.393Z,24.17
2017-05-29T06:25:41.889Z,24.14
2017-05-29T06:26:07.389Z,24.16
2017-05-29T06:26:32.867Z,24.16
2017-05-29T06:26:58.348Z,24.08
2017-05-29T06:27:23.848Z,24.16
2017-05-29T06:27:49.371Z,24.23
2017-05-29T06:28:14.836Z,24.29
2017-05-29T06:28:40.306Z,24.28
2017-05-29T06:29:05.805Z,24.29
2017-05-29T06:29:31.284Z,24.3
2017-05-29T06:29:56.754Z,24.32
2017-05-29T06:30:22.230Z,24.38
2017-05-29T06:30:47.710Z,24.35
2017-05-29T06:31:13.178Z,24.35
2017-05-29T06:31:38.676Z,24.4
2017-05-29T06:32:04.167Z,24.48
2017-05-29T06:32:29.663Z,24.53
2017-05-29T06:32:55.138Z,24.51
2017-05-29T06:33:20.625Z,24.54
2017-05-29T06:33:46.099Z,24.61
2017-05-29T06:34:11.569Z,24.65
2017-05-29T06:34:37.040Z,24.66
2017-05-29T06:35:02.506Z,24.54
2017-05-29T06:35:27.990Z,24.63
2017-05-29T06:35:53.489Z,24.63
2017-05-29T06:36:18.959Z,24.73
2017-05-29T06:36:44.450Z,24.68
2017-05-29T06:37:09.943Z,24.68
2017-05-29T06:37:35.429Z,24.57
2017-05-29T06:38:00.919Z,24.73
2017-05-29T06:38:26.405Z,24.78
2017-05-29T06:38:51.883Z,24.77
2017-05-29T06:39:17.366Z,24.78
2017-05-29T06:39:42.843Z,24.76
2017-05-29T06:40:08.305Z,24.85
2017-05-29T06:40:33.799Z,24.77
2017-05-29T06:40:59.283Z,24.84
2017-05-29T06:41:24.777Z,24.78
2017-05-29T06:41:50.254Z,24.91
2017-05-29T06:42:15.765Z,24.8
2017-05-29T06:42:41.250Z,24.8
2017-05-29T06:43:06.728Z,24.77
2017-05-29T06:43:32.210Z,24.85
2017-05-29T06:43:57.670Z,24.92
2017-05-29T06:44:23.160Z,24.91
2017-05-29T06:44:48.653Z,24.95
2017-05-29T06:45:14.150Z,24.88
2017-05-29T06:45:39.642Z,24.92
2017-05-29T06:46:05.118Z,24.91
2017-05-29T06:46:30.601Z,24.86
2017-05-29T06:46:56.089Z,24.77
2017-05-29T06:47:21.558Z,24.8
2017-05-29T06:47:47.020Z,24.86
2017-05-29T06:48:12.503Z,24.77
2017-05-29T06:48:37.988Z,24.84
2017-05-29T06:49:03.496Z,24.86
2017-05-29T06:49:28.966Z,24.92
2017-05-29T06:49:54.445Z,24.91
2017-05-29T06:50:19.927Z,24.88
2017-05-29T06:50:45.423Z,24.89
2017-05-29T06:51:10.906Z,24.91
2017-05-29T06:51:36.374Z,24.95
2017-05-29T06:52:01.870Z,24.93
2017-05-29T06:52:27.337Z,24.96
2017-05-29T06:52:52.821Z,24.99
2017-05-29T06:53:18.297Z,24.99
2017-05-29T06:53:43.812Z,25.04
2017-05-29T06:54:09.306Z,25.07
2017-05-29T06:54:34.787Z,25.08
2017-05-29T06:55:00.254Z,25.08
2017-05-29T06:55:25.726Z,25.14
2017-05-29T06:55:51.210Z,25.13
2017-05-29T06:56:16.703Z,25.23
2017-05-29T06:56:42.161Z,25.21
2017-05-29T06:57:07.656Z,25.21
2017-05-29T06:57:33.175Z,25.25
2017-05-29T06:57:58.654Z,25.25
2017-05-29T06:58:24.127Z,25.25
2017-05-29T06:58:49.592Z,25.31
2017-05-29T06:59:15.072Z,25.29
2017-05-29T06:59:40.557Z,25.28
2017-05-29T07:00:06.036Z,25.21
2017-05-29T07:00:31.515Z,25.23
2017-05-29T07:00:57.006Z,25.21
2017-05-29T07:01:22.495Z,25.25
2017-05-29T07:01:47.991Z,25.32
2017-05-29T07:02:13.480Z,25.32
2017-05-29T07:02:38.978Z,25.32
2017-05-29T07:03:04.473Z,25.31
2017-05-29T07:03:29.949Z,25.35
2017-05-29T07:03:55.445Z,25.41
2017-05-29T07:04:20.912Z,25.47
2017-05-29T07:04:46.382Z,25.48
2017-05-29T07:05:11.868Z,25.5
2017-05-29T07:05:37.352Z,25.5
2017-05-29T07:06:02.850Z,25.55
2017-05-29T07:06:28.330Z,25.6
2017-05-29T07:06:53.824Z,25.66
2017-05-29T07:07:19.289Z,25.59
2017-05-29T07:07:44.779Z,25.58
2017-05-29T07:08:10.288Z,25.51
2017-05-29T07:08:35.761Z,25.62
2017-05-29T07:09:01.250Z,25.6
2017-05-29T07:09:26.736Z,25.62
2017-05-29T07:09:52.213Z,25.59
2017-05-29T07:10:17.691Z,25.58
2017-05-29T07:10:43.177Z,25.62
2017-05-29T07:11:08.633Z,25.66
2017-05-29T07:11:34.123Z,25.72
2017-05-29T07:11:59.577Z,25.63
2017-05-29T07:12:25.067Z,25.66
2017-05-29T07:12:50.546Z,25.7
2017-05-29T07:13:16.024Z,25.66
2017-05-29T07:13:41.499Z,25.7
2017-05-29T07:14:06.992Z,25.7
2017-05-29T07:14:32.477Z,25.72
2017-05-29T07:14:57.942Z,25.77
2017-05-29T07:15:23.419Z,25.78
2017-05-29T07:15:48.909Z,25.77
2017-05-29T07:16:14.426Z,25.78
2017-05-29T07:16:39.911Z,25.73
2017-05-29T07:17:05.402Z,25.85
2017-05-29T07:17:30.897Z,25.83
2017-05-29T07:17:56.371Z,25.88
2017-05-29T07:18:21.855Z,25.88
2017-05-29T07:18:47.335Z,25.88
2017-05-29T07:19:12.831Z,25.87
2017-05-29T07:19:38.310Z,25.95
2017-05-29T07:20:03.823Z,25.99
2017-05-29T07:20:29.298Z,26
2017-05-29T07:20:54.776Z,26.05
2017-05-29T07:21:20.258Z,26.02
2017-05-29T07:21:45.757Z,26.02
2017-05-29T07:22:11.254Z,26.13
2017-05-29T07:22:36.737Z,26.15
2017-05-29T07:23:02.206Z,26.1
2017-05-29T07:23:27.693Z,26.13
2017-05-29T07:23:53.185Z,26.13
2017-05-29T07:24:18.717Z,26.19
2017-05-29T07:24:44.185Z,26.21
2017-05-29T07:25:09.674Z,26.15
2017-05-29T07:25:35.157Z,26.18
2017-05-29T07:26:00.647Z,26.18
2017-05-29T07:26:26.119Z,26.25
2017-05-29T07:26:51.587Z,26.25
2017-05-29T07:27:17.092Z,26.26
2017-05-29T07:27:42.568Z,26.21
2017-05-29T07:28:08.054Z,26.19
2017-05-29T07:28:33.520Z,26.23
2017-05-29T07:28:59.002Z,26.25
2017-05-29T07:29:24.483Z,26.33
2017-05-29T07:29:49.966Z,26.36
2017-05-29T07:30:15.448Z,26.4
2017-05-29T07:30:40.947Z,26.43
2017-05-29T07:31:06.418Z,26.38
2017-05-29T07:31:31.912Z,26.44
2017-05-29T07:31:57.403Z,26.47
2017-05-29T07:32:22.855Z,26.53
2017-05-29T07:32:48.339Z,26.48
2017-05-29T07:33:13.805Z,26.58
2017-05-29T07:33:39.290Z,26.62
2017-05-29T07:34:04.770Z,26.65
2017-05-29T07:34:30.276Z,26.68
2017-05-29T07:34:55.822Z,26.75
2017-05-29T07:35:21.250Z,26.77
2017-05-29T07:35:46.743Z,26.78
2017-05-29T07:36:12.221Z,26.88
2017-05-29T07:36:37.716Z,26.81
2017-05-29T07:37:03.197Z,26.88
2017-05-29T07:37:28.680Z,26.81
2017-05-29T07:37:54.161Z,26.9
2017-05-29T07:38:19.675Z,26.9
2017-05-29T07:38:45.161Z,26.9
2017-05-29T07:39:10.649Z,26.96
2017-05-29T07:39:36.150Z,26.93
2017-05-29T07:40:01.637Z,27
2017-05-29T07:40:27.127Z,27
2017-05-29T07:40:52.617Z,26.99
2017-05-29T07:41:18.097Z,27.05
2017-05-29T07:41:43.577Z,27.08
2017-05-29T07:42:09.078Z,27.07
2017-05-29T07:42:34.542Z,27.11
2017-05-29T07:43:00.031Z,27.1
2017-05-29T07:43:25.528Z,27.1
2017-05-29T07:43:50.999Z,27.14
2017-05-29T07:44:16.503Z,27.12
2017-05-29T07:44:41.968Z,27.12
2017-05-29T07:45:07.461Z,27.12
2017-05-29T07:45:32.956Z,27.15
2017-05-29T07:45:58.431Z,27.17
2017-05-29T07:46:23.912Z,27.18
2017-05-29T07:46:49.397Z,27.21
2017-05-29T07:47:14.897Z,27.33
2017-05-29T07:47:40.371Z,27.27
2017-05-29T07:48:05.895Z,27.33
2017-05-29T07:48:31.378Z,27.39
2017-05-29T07:48:56.847Z,27.37
2017-05-29T07:49:22.326Z,27.44
2017-05-29T07:49:47.806Z,27.35
2017-05-29T07:50:13.291Z,27.44
2017-05-29T07:50:38.794Z,27.45
2017-05-29T07:51:04.269Z,27.52
2017-05-29T07:51:29.760Z,27.52
2017-05-29T07:51:55.238Z,27.51
2017-05-29T07:52:20.745Z,27.6
2017-05-29T07:52:46.236Z,27.6
2017-05-29T07:53:11.717Z,27.65
2017-05-29T07:53:37.205Z,27.63
2017-05-29T07:54:02.688Z,27.59
2017-05-29T07:54:28.173Z,27.73
2017-05-29T07:54:53.668Z,27.68
2017-05-29T07:55:19.119Z,27.74
2017-05-29T07:55:44.581Z,27.73
2017-05-29T07:56:10.071Z,27.77
2017-05-29T07:56:35.550Z,27.77
2017-05-29T07:57:01.035Z,27.71
2017-05-29T07:57:26.515Z,27.8
2017-05-29T07:57:52.020Z,27.74
2017-05-29T07:58:17.480Z,27.85
2017-05-29T07:58:42.970Z,27.74
2017-05-29T07:59:08.455Z,27.82
2017-05-29T07:59:33.961Z,27.74
2017-05-29T07:59:59.443Z,27.74
2017-05-29T08:00:24.954Z,27.82
2017-05-29T08:00:50.443Z,27.8
2017-05-29T08:01:15.932Z,27.83
2017-05-29T08:01:41.429Z,27.89
2017-05-29T08:02:06.911Z,27.89
2017-05-29T08:02:32.402Z,27.87
2017-05-29T08:02:57.884Z,27.83
2017-05-29T08:03:23.411Z,27.85
2017-05-29T08:03:48.888Z,27.87
2017-05-29T08:04:14.372Z,27.87
2017-05-29T08:04:39.853Z,27.89
2017-05-29T08:05:05.350Z,27.87
2017-05-29T08:05:30.831Z,27.83
2017-05-29T08:05:56.323Z,27.9
2017-05-29T08:06:21.805Z,27.95
2017-05-29T08:06:47.268Z,27.9
2017-05-29T08:07:12.767Z,27.9
2017-05-29T08:07:38.261Z,27.89
2017-05-29T08:08:03.763Z,27.93
2017-05-29T08:08:29.252Z,27.92
2017-05-29T08:08:54.771Z,28.01
2017-05-29T08:09:20.252Z,27.98
2017-05-29T08:09:45.717Z,28.04
2017-05-29T08:10:11.210Z,27.95
2017-05-29T08:10:36.710Z,27.96
2017-05-29T08:11:02.242Z,28.04
2017-05-29T08:11:27.731Z,28
2017-05-29T08:11:53.211Z,28.05
2017-05-29T08:12:18.665Z,28.04
2017-05-29T08:12:44.177Z,28.07
2017-05-29T08:13:09.653Z,28.02
2017-05-29T08:13:35.128Z,28.05
2017-05-29T08:14:00.593Z,27.98
2017-05-29T08:14:26.076Z,28.02
2017-05-29T08:14:51.558Z,28.11
2017-05-29T08:15:17.021Z,28
2017-05-29T08:15:42.503Z,28.08
2017-05-29T08:16:07.983Z,28.04
2017-05-29T08:16:33.465Z,28.08
2017-05-29T08:16:58.981Z,28.05
2017-05-29T08:17:24.451Z,28.1
2017-05-29T08:17:49.933Z,28.07
2017-05-29T08:18:15.443Z,28.08
2017-05-29T08:18:40.918Z,28.15
2017-05-29T08:19:06.406Z,28.15
2017-05-29T08:19:31.897Z,28.15
2017-05-29T08:19:57.375Z,28.17
2017-05-29T08:20:22.845Z,28.25
2017-05-29T08:20:48.366Z,28.22
2017-05-29T08:21:13.867Z,28.32
2017-05-29T08:21:39.373Z,28.37
2017-05-29T08:22:04.861Z,28.38
2017-05-29T08:22:30.342Z,28.41
2017-05-29T08:22:55.817Z,28.39
2017-05-29T08:23:21.324Z,28.41
2017-05-29T08:23:46.818Z,28.52
2017-05-29T08:24:12.303Z,28.54
2017-05-29T08:24:37.780Z,28.52
2017-05-29T08:25:03.255Z,28.63
2017-05-29T08:25:28.734Z,28.62
2017-05-29T08:25:54.214Z,28.66
2017-05-29T08:26:19.693Z,28.72
2017-05-29T08:26:45.180Z,28.75
2017-05-29T08:27:10.667Z,28.67
2017-05-29T08:27:36.144Z,28.7
2017-05-29T08:28:01.630Z,28.62
2017-05-29T08:28:27.132Z,28.63
2017-05-29T08:28:52.629Z,28.66
2017-05-29T08:29:18.115Z,28.62
2017-05-29T08:29:43.613Z,28.48
2017-05-29T08:30:09.094Z,28.63
2017-05-29T08:30:34.611Z,28.63
2017-05-29T08:31:00.102Z,28.56
2017-05-29T08:31:25.581Z,28.62
2017-05-29T08:31:51.060Z,28.66
2017-05-29T08:32:16.554Z,28.62
2017-05-29T08:32:42.044Z,28.66
2017-05-29T08:33:07.535Z,28.63
2017-05-29T08:33:33.017Z,28.64
2017-05-29T08:33:58.506Z,28.74
2017-05-29T08:34:23.987Z,28.69
2017-05-29T08:34:49.493Z,28.69
2017-05-29T08:35:14.942Z,28.78
2017-05-29T08:35:40.415Z,28.78
2017-05-29T08:36:05.882Z,28.74
2017-05-29T08:36:31.376Z,28.75
2017-05-29T08:36:56.882Z,28.72
2017-05-29T08:37:22.399Z,28.78
2017-05-29T08:37:47.889Z,28.76
2017-05-29T08:38:13.382Z,28.78
2017-05-29T08:38:38.877Z,28.76
2017-05-29T08:39:04.365Z,28.69
2017-05-29T08:39:29.853Z,28.67
2017-05-29T08:39:55.322Z,28.67
2017-05-29T08:40:20.809Z,28.66
2017-05-29T08:40:46.299Z,28.7
2017-05-29T08:41:11.804Z,28.76
2017-05-29T08:41:37.284Z,28.76
2017-05-29T08:42:02.786Z,28.78
2017-05-29T08:42:28.270Z,28.74
2017-05-29T08:42:53.748Z,28.74
2017-05-29T08:43:19.280Z,28.78
2017-05-29T08:43:44.768Z,28.64
2017-05-29T08:44:10.258Z,28.67
2017-05-29T08:44:35.739Z,28.64
2017-05-29T08:45:01.225Z,28.72
2017-05-29T08:45:26.724Z,28.62
2017-05-29T08:45:52.209Z,28.66
2017-05-29T08:46:17.711Z,28.66
2017-05-29T08:46:43.197Z,28.59
2017-05-29T08:47:08.728Z,28.62
2017-05-29T08:47:34.203Z,28.56
2017-05-29T08:47:59.677Z,28.62
2017-05-29T08:48:25.163Z,28.56
2017-05-29T08:48:50.649Z,28.62
2017-05-29T08:49:16.148Z,28.69
2017-05-29T08:49:41.641Z,28.66
2017-05-29T08:50:07.121Z,28.64
2017-05-29T08:50:32.607Z,28.62
2017-05-29T08:50:58.093Z,28.64
2017-05-29T08:51:23.582Z,28.63
2017-05-29T08:51:49.060Z,28.66
2017-05-29T08:52:14.556Z,28.59
2017-05-29T08:52:40.011Z,28.56
2017-05-29T08:53:05.511Z,28.63
2017-05-29T08:53:30.975Z,28.63
2017-05-29T08:53:56.447Z,28.67
2017-05-29T08:54:21.952Z,28.63
2017-05-29T08:54:47.438Z,28.63
2017-05-29T08:55:12.920Z,28.59
2017-05-29T08:55:38.430Z,28.63
2017-05-29T08:56:03.920Z,28.56
2017-05-29T08:56:29.415Z,28.63
2017-05-29T08:56:54.910Z,28.63
2017-05-29T08:57:20.411Z,28.52
2017-05-29T08:57:45.887Z,28.63
2017-05-29T08:58:11.363Z,28.64
2017-05-29T08:58:36.829Z,28.7
2017-05-29T08:59:02.307Z,28.78
2017-05-29T08:59:27.780Z,28.82
2017-05-29T08:59:53.280Z,28.75
2017-05-29T09:00:18.760Z,28.82
2017-05-29T09:00:44.244Z,28.84
2017-05-29T09:01:09.733Z,28.89
2017-05-29T09:01:35.243Z,28.97
2017-05-29T09:02:00.722Z,28.94
2017-05-29T09:02:26.201Z,28.91
2017-05-29T09:02:51.698Z,28.98
2017-05-29T09:03:17.181Z,29.04
2017-05-29T09:03:42.669Z,29.02
2017-05-29T09:04:08.146Z,29.07
2017-05-29T09:04:33.638Z,29.08
2017-05-29T09:04:59.124Z,29.01
2017-05-29T09:05:24.617Z,29.01
2017-05-29T09:05:50.109Z,29.04
2017-05-29T09:06:15.593Z,29.07
2017-05-29T09:06:41.074Z,29.1
2017-05-29T09:07:06.552Z,29.12
2017-05-29T09:07:32.056Z,29.07
2017-05-29T09:07:57.559Z,29.14
2017-05-29T09:08:23.043Z,29.08
2017-05-29T09:08:48.530Z,29.14
2017-05-29T09:09:14.017Z,29.1
2017-05-29T09:09:39.513Z,29.02
2017-05-29T09:10:05.010Z,29.13
2017-05-29T09:10:30.497Z,29.01
2017-05-29T09:10:55.975Z,28.96
2017-05-29T09:11:21.473Z,28.97
2017-05-29T09:11:46.947Z,28.93
2017-05-29T09:12:12.416Z,28.96
2017-05-29T09:12:37.903Z,28.98
2017-05-29T09:13:03.388Z,28.98
2017-05-29T09:13:28.859Z,28.97
2017-05-29T09:13:54.359Z,28.98
2017-05-29T09:14:19.840Z,28.86
2017-05-29T09:14:45.351Z,28.86
2017-05-29T09:15:10.839Z,28.86
2017-05-29T09:15:36.324Z,28.85
2017-05-29T09:16:01.796Z,28.81
2017-05-29T09:16:27.294Z,28.76
2017-05-29T09:16:52.789Z,28.78
2017-05-29T09:17:18.271Z,28.67
2017-05-29T09:17:43.736Z,28.66
2017-05-29T09:18:09.179Z,28.6
2017-05-29T09:18:34.679Z,28.63
2017-05-29T09:19:00.146Z,28.6
2017-05-29T09:19:25.668Z,28.63
2017-05-29T09:19:51.128Z,28.57
2017-05-29T09:20:16.628Z,28.51
2017-05-29T09:20:42.139Z,28.62
2017-05-29T09:21:07.634Z,28.52
2017-05-29T09:21:33.132Z,28.57
2017-05-29T09:21:58.619Z,28.6
2017-05-29T09:22:24.095Z,28.62
2017-05-29T09:22:49.580Z,28.63
2017-05-29T09:23:15.050Z,28.63
2017-05-29T09:23:40.542Z,28.76
2017-05-29T09:24:06.013Z,28.81
2017-05-29T09:24:31.524Z,28.85
2017-05-29T09:24:57.024Z,28.88
2017-05-29T09:25:22.518Z,29.01
2017-05-29T09:25:47.997Z,28.97
2017-05-29T09:26:13.498Z,29.04
2017-05-29T09:26:38.979Z,29.14
2017-05-29T09:27:04.435Z,29.16
2017-05-29T09:27:29.918Z,29.23
2017-05-29T09:27:55.396Z,29.27
2017-05-29T09:28:20.877Z,29.27
2017-05-29T09:28:46.377Z,29.36
2017-05-29T09:29:11.848Z,29.41
2017-05-29T09:29:37.322Z,29.42
2017-05-29T09:30:02.804Z,29.39
2017-05-29T09:30:28.312Z,29.36
2017-05-29T09:30:53.785Z,29.36
2017-05-29T09:31:19.268Z,29.38
2017-05-29T09:31:44.786Z,29.49
2017-05-29T09:32:10.274Z,29.39
2017-05-29T09:32:35.755Z,29.39
2017-05-29T09:33:01.225Z,29.31
2017-05-29T09:33:26.716Z,29.35
2017-05-29T09:33:52.183Z,29.47
2017-05-29T09:34:17.692Z,29.39
2017-05-29T09:34:43.167Z,29.32
2017-05-29T09:35:08.670Z,29.44
2017-05-29T09:35:34.152Z,29.34
2017-05-29T09:35:59.644Z,29.36
2017-05-29T09:36:25.127Z,29.35
2017-05-29T09:36:50.615Z,29.41
2017-05-29T09:37:16.094Z,29.38
2017-05-29T09:37:41.575Z,29.47
2017-05-29T09:38:07.053Z,29.45
2017-05-29T09:38:32.532Z,29.49
2017-05-29T09:38:58.037Z,29.49
2017-05-29T09:39:23.519Z,29.59
2017-05-29T09:39:49.003Z,29.6
2017-05-29T09:40:14.486Z,29.59
2017-05-29T09:40:39.985Z,29.65
2017-05-29T09:41:05.477Z,29.68
2017-05-29T09:41:30.959Z,29.65
2017-05-29T09:41:56.459Z,29.73
2017-05-29T09:42:21.964Z,29.68
2017-05-29T09:42:47.451Z,29.68
2017-05-29T09:43:12.936Z,29.76
2017-05-29T09:43:38.407Z,29.86
2017-05-29T09:44:03.892Z,29.73
2017-05-29T09:44:29.396Z,29.75
2017-05-29T09:44:54.862Z,29.82
2017-05-29T09:45:20.343Z,29.81
2017-05-29T09:45:45.875Z,29.84
2017-05-29T09:46:11.361Z,29.84
2017-05-29T09:46:36.833Z,29.87
2017-05-29T09:47:02.303Z,29.71
2017-05-29T09:47:27.798Z,29.65
2017-05-29T09:47:53.286Z,29.53
2017-05-29T09:48:18.772Z,29.53
2017-05-29T09:48:44.257Z,29.39
2017-05-29T09:49:09.725Z,29.32
2017-05-29T09:49:35.203Z,29.34
2017-05-29T09:50:00.673Z,29.29
2017-05-29T09:50:26.149Z,29.2
2017-05-29T09:50:51.630Z,29.16
2017-05-29T09:51:17.119Z,29.13
2017-05-29T09:51:42.588Z,29.12
2017-05-29T09:52:08.100Z,29.04
2017-05-29T09:52:33.585Z,28.98
2017-05-29T09:52:59.056Z,28.96
2017-05-29T09:53:24.542Z,28.96
2017-05-29T09:53:50.063Z,28.93
2017-05-29T09:54:15.526Z,28.94
2017-05-29T09:54:41.022Z,28.97
2017-05-29T09:55:06.500Z,28.96
2017-05-29T09:55:31.972Z,28.96
2017-05-29T09:55:57.455Z,28.91
2017-05-29T09:56:22.949Z,28.94
2017-05-29T09:56:48.428Z,28.94
2017-05-29T09:57:13.920Z,28.94
2017-05-29T09:57:39.406Z,28.91
2017-05-29T09:58:04.886Z,28.82
2017-05-29T09:58:30.354Z,28.85
2017-05-29T09:58:55.860Z,28.88
2017-05-29T09:59:21.346Z,28.84
2017-05-29T09:59:46.851Z,28.85
2017-05-29T10:00:12.338Z,28.82
2017-05-29T10:00:37.835Z,28.86
2017-05-29T10:01:03.315Z,28.89
2017-05-29T10:01:28.817Z,29.02
2017-05-29T10:01:54.309Z,28.98
2017-05-29T10:02:19.778Z,29.02
2017-05-29T10:02:45.259Z,29.12
2017-05-29T10:03:10.741Z,29.02
2017-05-29T10:03:36.223Z,29.12
2017-05-29T10:04:01.699Z,29.16
2017-05-29T10:04:27.206Z,29.14
2017-05-29T10:04:52.726Z,29.24
2017-05-29T10:05:18.206Z,29.2
2017-05-29T10:05:43.683Z,29.2
2017-05-29T10:06:09.157Z,29.29
2017-05-29T10:06:34.632Z,29.27
2017-05-29T10:07:00.182Z,29.31
2017-05-29T10:07:25.649Z,29.26
2017-05-29T10:07:51.151Z,29.27
2017-05-29T10:08:16.614Z,29.29
2017-05-29T10:08:42.103Z,29.29
2017-05-29T10:09:07.592Z,29.27
2017-05-29T10:09:33.093Z,29.34
2017-05-29T10:09:58.577Z,29.35
2017-05-29T10:10:24.039Z,29.32
2017-05-29T10:10:49.546Z,29.29
2017-05-29T10:11:15.013Z,29.34
2017-05-29T10:11:40.498Z,29.31
2017-05-29T10:12:05.964Z,29.35
2017-05-29T10:12:31.460Z,29.35
2017-05-29T10:12:56.950Z,29.36
2017-05-29T10:13:22.425Z,29.47
2017-05-29T10:13:47.924Z,29.47
2017-05-29T10:14:13.411Z,29.51
2017-05-29T10:14:38.913Z,29.45
2017-05-29T10:15:04.395Z,29.51
2017-05-29T10:15:29.871Z,29.6